Terminal Aerodrome Forecast
Issued by NWS Pendleton, OR

Home | Current Version | Previous Version | Text Only | Print | Product List | Glossary On
Versions: 1 2 3 4 5 6 7 8 9 10 11 12
000
FTUS46 KPDT 281125
TAFPDT
TAF
KPDT 281125Z 2812/2912 15006KT P6SM BKN150
     FM281700 VRB05KT P6SM BKN150
     FM282000 01008KT P6SM BKN120
     FM290200 VRB06KT P6SM OVC100
     FM290500 12005KT P6SM BKN120=

USA.gov is the U.S. government's official web portal to all federal, state and local government web resources and services.